sensor_id;sensor_type;location;lat;lon;timestamp;temperature;humidity
39881;DHT22;25554;44.954;10.068;2023-05-07T00:02:01;14.40;99.90
39881;DHT22;25554;44.954;10.068;2023-05-07T00:04:27;17.30;99.90
39881;DHT22;25554;44.954;10.068;2023-05-07T00:06:54;17.20;99.90
39881;DHT22;25554;44.954;10.068;2023-05-07T00:09:21;17.00;99.90
39881;DHT22;25554;44.954;10.068;2023-05-07T00:11:47;16.80;99.90
39881;DHT22;25554;44.954;10.068;2023-05-07T00:14:13;16.70;99.90
39881;DHT22;25554;44.954;10.068;2023-05-07T00:16:39;16.70;99.90
39881;DHT22;25554;44.954;10.068;2023-05-07T00:19:05;14.90;99.90
39881;DHT22;25554;44.954;10.068;2023-05-07T00:21:31;16.60;99.90
39881;DHT22;25554;44.954;10.068;2023-05-07T00:23:57;16.60;99.90
39881;DHT22;25554;44.954;10.068;2023-05-07T00:26:23;16.60;99.90
39881;DHT22;25554;44.954;10.068;2023-05-07T00:28:51;16.60;99.90
39881;DHT22;25554;44.954;10.068;2023-05-07T00:31:17;16.60;99.90
39881;DHT22;25554;44.954;10.068;2023-05-07T00:33:43;16.60;99.90
39881;DHT22;25554;44.954;10.068;2023-05-07T00:36:09;16.60;99.90
39881;DHT22;25554;44.954;10.068;2023-05-07T00:38:35;16.70;99.90
39881;DHT22;25554;44.954;10.068;2023-05-07T00:41:01;16.70;99.90
39881;DHT22;25554;44.954;10.068;2023-05-07T00:43:28;16.70;99.90
39881;DHT22;25554;44.954;10.068;2023-05-07T00:45:54;16.70;99.90
39881;DHT22;25554;44.954;10.068;2023-05-07T00:48:20;16.80;99.90
39881;DHT22;25554;44.954;10.068;2023-05-07T00:50:46;16.80;99.90
39881;DHT22;25554;44.954;10.068;2023-05-07T00:53:13;16.80;99.90
39881;DHT22;25554;44.954;10.068;2023-05-07T00:55:40;16.90;99.90
39881;DHT22;25554;44.954;10.068;2023-05-07T00:58:06;16.90;99.90
39881;DHT22;25554;44.954;10.068;2023-05-07T01:00:32;16.80;99.90
39881;DHT22;25554;44.954;10.068;2023-05-07T01:02:58;16.90;99.90
39881;DHT22;25554;44.954;10.068;2023-05-07T01:05:24;16.90;99.90
39881;DHT22;25554;44.954;10.068;2023-05-07T01:07:52;16.80;99.90
39881;DHT22;25554;44.954;10.068;2023-05-07T01:10:19;16.80;99.90
39881;DHT22;25554;44.954;10.068;2023-05-07T01:12:45;16.60;99.90
39881;DHT22;25554;44.954;10.068;2023-05-07T01:15:12;16.70;99.90
39881;DHT22;25554;44.954;10.068;2023-05-07T01:17:39;16.40;99.90
39881;DHT22;25554;44.954;10.068;2023-05-07T01:20:08;16.40;99.90
39881;DHT22;25554;44.954;10.068;2023-05-07T01:22:36;16.40;99.90
39881;DHT22;25554;44.954;10.068;2023-05-07T01:25:03;16.40;99.90
39881;DHT22;25554;44.954;10.068;2023-05-07T01:27:31;16.40;99.90
39881;DHT22;25554;44.954;10.068;2023-05-07T01:29:59;16.40;99.90
39881;DHT22;25554;44.954;10.068;2023-05-07T01:32:32;16.40;99.90
39881;DHT22;25554;44.954;10.068;2023-05-07T01:34:59;16.40;99.90
39881;DHT22;25554;44.954;10.068;2023-05-07T01:37:26;16.30;99.90
39881;DHT22;25554;44.954;10.068;2023-05-07T01:39:52;16.30;99.90
39881;DHT22;25554;44.954;10.068;2023-05-07T01:42:19;16.30;99.90
39881;DHT22;25554;44.954;10.068;2023-05-07T01:44:45;16.10;99.90
39881;DHT22;25554;44.954;10.068;2023-05-07T01:47:12;16.00;99.90
39881;DHT22;25554;44.954;10.068;2023-05-07T01:49:39;16.00;99.90
39881;DHT22;25554;44.954;10.068;2023-05-07T01:52:05;15.90;99.90
39881;DHT22;25554;44.954;10.068;2023-05-07T01:54:31;15.90;99.90
39881;DHT22;25554;44.954;10.068;2023-05-07T01:56:59;15.80;99.90
39881;DHT22;25554;44.954;10.068;2023-05-07T01:59:26;15.80;99.90
39881;DHT22;25554;44.954;10.068;2023-05-07T02:01:52;15.80;99.90
39881;DHT22;25554;44.954;10.068;2023-05-07T02:04:19;15.90;99.90
39881;DHT22;25554;44.954;10.068;2023-05-07T02:06:45;15.90;99.90
39881;DHT22;25554;44.954;10.068;2023-05-07T02:09:13;15.90;99.90
39881;DHT22;25554;44.954;10.068;2023-05-07T02:11:42;16.00;99.90
39881;DHT22;25554;44.954;10.068;2023-05-07T02:14:09;16.00;99.90
39881;DHT22;25554;44.954;10.068;2023-05-07T02:16:36;15.90;99.90
39881;DHT22;25554;44.954;10.068;2023-05-07T02:19:02;15.90;99.90
39881;DHT22;25554;44.954;10.068;2023-05-07T02:21:28;15.90;99.90
39881;DHT22;25554;44.954;10.068;2023-05-07T02:23:54;15.90;99.90
39881;DHT22;25554;44.954;10.068;2023-05-07T02:26:21;15.80;99.90
39881;DHT22;25554;44.954;10.068;2023-05-07T02:28:47;15.70;99.90
39881;DHT22;25554;44.954;10.068;2023-05-07T02:31:14;15.70;99.90
39881;DHT22;25554;44.954;10.068;2023-05-07T02:33:40;15.60;99.90
39881;DHT22;25554;44.954;10.068;2023-05-07T02:36:09;15.60;99.90
39881;DHT22;25554;44.954;10.068;2023-05-07T02:38:40;15.60;99.90
39881;DHT22;25554;44.954;10.068;2023-05-07T02:41:06;15.50;99.90
39881;DHT22;25554;44.954;10.068;2023-05-07T02:43:32;17.40;99.90
39881;DHT22;25554;44.954;10.068;2023-05-07T02:46:04;15.50;99.90
39881;DHT22;25554;44.954;10.068;2023-05-07T02:48:32;15.50;99.90
39881;DHT22;25554;44.954;10.068;2023-05-07T02:50:59;15.40;99.90
39881;DHT22;25554;44.954;10.068;2023-05-07T02:53:25;15.40;99.90
39881;DHT22;25554;44.954;10.068;2023-05-07T02:55:55;15.40;99.90
39881;DHT22;25554;44.954;10.068;2023-05-07T02:58:22;15.40;99.90
39881;DHT22;25554;44.954;10.068;2023-05-07T03:00:48;15.40;99.90
39881;DHT22;25554;44.954;10.068;2023-05-07T03:03:34;15.40;99.90
39881;DHT22;25554;44.954;10.068;2023-05-07T03:06:01;17.70;99.90
39881;DHT22;25554;44.954;10.068;2023-05-07T03:08:27;15.40;99.90
39881;DHT22;25554;44.954;10.068;2023-05-07T03:10:53;15.40;99.90
39881;DHT22;25554;44.954;10.068;2023-05-07T03:13:19;15.40;99.90
39881;DHT22;25554;44.954;10.068;2023-05-07T03:15:47;15.30;99.90
39881;DHT22;25554;44.954;10.068;2023-05-07T03:18:13;15.30;99.90
39881;DHT22;25554;44.954;10.068;2023-05-07T03:20:39;15.30;99.90
39881;DHT22;25554;44.954;10.068;2023-05-07T03:23:05;15.30;99.90
39881;DHT22;25554;44.954;10.068;2023-05-07T03:25:31;15.20;99.90
39881;DHT22;25554;44.954;10.068;2023-05-07T03:27:57;15.20;99.90
39881;DHT22;25554;44.954;10.068;2023-05-07T03:30:29;15.10;99.90
39881;DHT22;25554;44.954;10.068;2023-05-07T03:32:55;15.20;99.90
39881;DHT22;25554;44.954;10.068;2023-05-07T03:35:22;15.20;99.90
39881;DHT22;25554;44.954;10.068;2023-05-07T03:37:48;15.20;99.90
39881;DHT22;25554;44.954;10.068;2023-05-07T03:40:15;15.20;99.90
39881;DHT22;25554;44.954;10.068;2023-05-07T03:42:46;15.20;99.90
39881;DHT22;25554;44.954;10.068;2023-05-07T03:45:13;15.20;99.90
39881;DHT22;25554;44.954;10.068;2023-05-07T03:47:44;15.20;99.90
39881;DHT22;25554;44.954;10.068;2023-05-07T03:50:14;15.30;99.90
39881;DHT22;25554;44.954;10.068;2023-05-07T03:52:40;15.20;99.90
39881;DHT22;25554;44.954;10.068;2023-05-07T03:55:08;15.30;99.90
39881;DHT22;25554;44.954;10.068;2023-05-07T03:57:35;15.40;99.90
39881;DHT22;25554;44.954;10.068;2023-05-07T04:00:02;15.40;99.90
39881;DHT22;25554;44.954;10.068;2023-05-07T04:02:35;15.30;99.90
39881;DHT22;25554;44.954;10.068;2023-05-07T04:05:02;15.30;99.90
39881;DHT22;25554;44.954;10.068;2023-05-07T04:07:28;15.30;99.90
39881;DHT22;25554;44.954;10.068;2023-05-07T04:09:54;15.30;99.90
39881;DHT22;25554;44.954;10.068;2023-05-07T04:12:20;15.20;99.90
39881;DHT22;25554;44.954;10.068;2023-05-07T04:14:48;15.10;99.90
39881;DHT22;25554;44.954;10.068;2023-05-07T04:17:14;15.10;99.90
39881;DHT22;25554;44.954;10.068;2023-05-07T04:19:40;15.10;99.90
39881;DHT22;25554;44.954;10.068;2023-05-07T04:22:11;15.00;99.90
39881;DHT22;25554;44.954;10.068;2023-05-07T04:24:38;15.00;99.90
39881;DHT22;25554;44.954;10.068;2023-05-07T04:27:04;14.90;99.90
39881;DHT22;25554;44.954;10.068;2023-05-07T04:29:32;15.00;99.90
39881;DHT22;25554;44.954;10.068;2023-05-07T04:31:58;15.00;99.90
39881;DHT22;25554;44.954;10.068;2023-05-07T04:34:25;15.00;99.90
39881;DHT22;25554;44.954;10.068;2023-05-07T04:36:52;15.00;99.90
39881;DHT22;25554;44.954;10.068;2023-05-07T04:39:18;15.00;99.90
39881;DHT22;25554;44.954;10.068;2023-05-07T04:41:46;15.00;99.90
39881;DHT22;25554;44.954;10.068;2023-05-07T04:44:13;15.00;99.90
39881;DHT22;25554;44.954;10.068;2023-05-07T04:46:39;15.00;99.90
39881;DHT22;25554;44.954;10.068;2023-05-07T04:49:05;14.90;99.90
39881;DHT22;25554;44.954;10.068;2023-05-07T04:51:31;14.90;99.90
39881;DHT22;25554;44.954;10.068;2023-05-07T04:53:58;17.20;99.90
39881;DHT22;25554;44.954;10.068;2023-05-07T04:56:28;15.20;99.90
39881;DHT22;25554;44.954;10.068;2023-05-07T04:58:54;15.00;99.90
39881;DHT22;25554;44.954;10.068;2023-05-07T05:01:21;15.00;99.90
39881;DHT22;25554;44.954;10.068;2023-05-07T05:03:47;15.10;99.90
39881;DHT22;25554;44.954;10.068;2023-05-07T05:06:14;15.20;99.90
39881;DHT22;25554;44.954;10.068;2023-05-07T05:08:40;15.20;99.90
39881;DHT22;25554;44.954;10.068;2023-05-07T05:11:06;15.30;99.90
39881;DHT22;25554;44.954;10.068;2023-05-07T05:13:34;15.40;99.90
39881;DHT22;25554;44.954;10.068;2023-05-07T05:16:06;15.50;99.90
39881;DHT22;25554;44.954;10.068;2023-05-07T05:18:32;15.50;99.90
39881;DHT22;25554;44.954;10.068;2023-05-07T05:20:58;15.50;99.90
39881;DHT22;25554;44.954;10.068;2023-05-07T05:23:25;15.70;99.90
39881;DHT22;25554;44.954;10.068;2023-05-07T05:25:55;15.60;99.90
39881;DHT22;25554;44.954;10.068;2023-05-07T05:28:22;15.70;99.90
39881;DHT22;25554;44.954;10.068;2023-05-07T05:30:48;15.70;99.90
39881;DHT22;25554;44.954;10.068;2023-05-07T05:33:15;15.70;99.90
39881;DHT22;25554;44.954;10.068;2023-05-07T05:35:41;15.80;99.90
39881;DHT22;25554;44.954;10.068;2023-05-07T05:38:11;15.90;99.90
39881;DHT22;25554;44.954;10.068;2023-05-07T05:40:38;16.00;99.90
39881;DHT22;25554;44.954;10.068;2023-05-07T05:43:05;16.00;99.90
39881;DHT22;25554;44.954;10.068;2023-05-07T05:45:31;16.10;99.90
39881;DHT22;25554;44.954;10.068;2023-05-07T05:47:57;16.20;99.90
39881;DHT22;25554;44.954;10.068;2023-05-07T05:50:24;16.30;99.90
39881;DHT22;25554;44.954;10.068;2023-05-07T05:52:51;16.40;99.90
39881;DHT22;25554;44.954;10.068;2023-05-07T05:55:18;16.40;99.90
39881;DHT22;25554;44.954;10.068;2023-05-07T05:57:45;16.50;99.90
39881;DHT22;25554;44.954;10.068;2023-05-07T06:00:12;16.60;99.90
39881;DHT22;25554;44.954;10.068;2023-05-07T06:02:47;16.80;99.90
39881;DHT22;25554;44.954;10.068;2023-05-07T06:05:20;16.80;99.90
39881;DHT22;25554;44.954;10.068;2023-05-07T06:07:47;17.00;99.90
39881;DHT22;25554;44.954;10.068;2023-05-07T06:10:14;17.10;99.90
39881;DHT22;25554;44.954;10.068;2023-05-07T06:12:40;17.20;99.90
39881;DHT22;25554;44.954;10.068;2023-05-07T06:15:08;17.30;99.90
39881;DHT22;25554;44.954;10.068;2023-05-07T06:17:35;17.50;99.90
39881;DHT22;25554;44.954;10.068;2023-05-07T06:20:01;17.60;99.90
39881;DHT22;25554;44.954;10.068;2023-05-07T06:22:28;17.70;99.90
39881;DHT22;25554;44.954;10.068;2023-05-07T06:24:55;17.80;99.90
39881;DHT22;25554;44.954;10.068;2023-05-07T06:27:21;17.90;99.90
39881;DHT22;25554;44.954;10.068;2023-05-07T06:29:48;18.10;99.90
39881;DHT22;25554;44.954;10.068;2023-05-07T06:32:16;18.20;99.90
39881;DHT22;25554;44.954;10.068;2023-05-07T06:34:44;18.30;99.90
39881;DHT22;25554;44.954;10.068;2023-05-07T06:37:11;18.50;99.90
39881;DHT22;25554;44.954;10.068;2023-05-07T06:39:48;18.60;99.90
39881;DHT22;25554;44.954;10.068;2023-05-07T06:42:14;17.10;99.90
39881;DHT22;25554;44.954;10.068;2023-05-07T06:44:42;18.90;99.90
39881;DHT22;25554;44.954;10.068;2023-05-07T06:47:11;19.10;99.90
39881;DHT22;25554;44.954;10.068;2023-05-07T06:49:39;19.60;99.90
39881;DHT22;25554;44.954;10.068;2023-05-07T06:52:05;20.20;99.90
39881;DHT22;25554;44.954;10.068;2023-05-07T06:54:32;20.80;99.90
39881;DHT22;25554;44.954;10.068;2023-05-07T06:56:58;21.30;99.90
39881;DHT22;25554;44.954;10.068;2023-05-07T06:59:26;21.90;99.90
39881;DHT22;25554;44.954;10.068;2023-05-07T07:01:53;22.00;99.90
39881;DHT22;25554;44.954;10.068;2023-05-07T07:04:19;22.20;99.90
39881;DHT22;25554;44.954;10.068;2023-05-07T07:06:53;22.30;99.90
39881;DHT22;25554;44.954;10.068;2023-05-07T07:09:19;22.50;99.90
39881;DHT22;25554;44.954;10.068;2023-05-07T07:11:45;22.40;99.90
39881;DHT22;25554;44.954;10.068;2023-05-07T07:14:12;22.50;99.90
39881;DHT22;25554;44.954;10.068;2023-05-07T07:16:45;22.80;99.90
39881;DHT22;25554;44.954;10.068;2023-05-07T07:19:13;22.30;99.90
39881;DHT22;25554;44.954;10.068;2023-05-07T07:21:42;22.30;99.90
39881;DHT22;25554;44.954;10.068;2023-05-07T07:24:12;22.20;99.90
39881;DHT22;25554;44.954;10.068;2023-05-07T07:26:45;22.30;99.90
39881;DHT22;25554;44.954;10.068;2023-05-07T07:29:12;22.30;99.90
39881;DHT22;25554;44.954;10.068;2023-05-07T07:31:40;22.50;99.90
39881;DHT22;25554;44.954;10.068;2023-05-07T07:34:06;22.70;99.90
39881;DHT22;25554;44.954;10.068;2023-05-07T07:36:33;22.40;99.90
39881;DHT22;25554;44.954;10.068;2023-05-07T07:38:59;22.90;99.90
39881;DHT22;25554;44.954;10.068;2023-05-07T07:41:25;23.00;99.90
39881;DHT22;25554;44.954;10.068;2023-05-07T07:43:51;23.10;99.90
39881;DHT22;25554;44.954;10.068;2023-05-07T07:46:20;23.20;99.90
39881;DHT22;25554;44.954;10.068;2023-05-07T07:48:46;23.10;99.90
39881;DHT22;25554;44.954;10.068;2023-05-07T07:51:12;23.10;99.90
39881;DHT22;25554;44.954;10.068;2023-05-07T07:53:38;23.00;99.90
39881;DHT22;25554;44.954;10.068;2023-05-07T08:12:59;23.50;99.90
39881;DHT22;25554;44.954;10.068;2023-05-07T08:46:20;23.60;99.90
39881;DHT22;25554;44.954;10.068;2023-05-07T08:56:48;23.80;99.90
39881;DHT22;25554;44.954;10.068;2023-05-07T09:03:58;24.00;99.90
39881;DHT22;25554;44.954;10.068;2023-05-07T09:19:48;24.40;99.90
39881;DHT22;25554;44.954;10.068;2023-05-07T09:29:57;24.70;99.90
39881;DHT22;25554;44.954;10.068;2023-05-07T09:37:02;24.60;99.90
39881;DHT22;25554;44.954;10.068;2023-05-07T09:40:24;24.80;99.90
39881;DHT22;25554;44.954;10.068;2023-05-07T09:43:53;25.10;99.90
39881;DHT22;25554;44.954;10.068;2023-05-07T09:50:58;26.10;99.90
39881;DHT22;25554;44.954;10.068;2023-05-07T10:04:36;25.50;99.90
39881;DHT22;25554;44.954;10.068;2023-05-07T10:11:33;25.70;99.90
39881;DHT22;25554;44.954;10.068;2023-05-07T10:15:14;25.60;99.90
39881;DHT22;25554;44.954;10.068;2023-05-07T10:18:57;25.40;99.90
39881;DHT22;25554;44.954;10.068;2023-05-07T10:33:10;25.40;99.90
39881;DHT22;25554;44.954;10.068;2023-05-07T10:36:41;25.50;99.90
39881;DHT22;25554;44.954;10.068;2023-05-07T10:54:34;26.10;99.90
39881;DHT22;25554;44.954;10.068;2023-05-07T11:02:24;26.60;99.90
39881;DHT22;25554;44.954;10.068;2023-05-07T11:05:22;25.80;99.90
39881;DHT22;25554;44.954;10.068;2023-05-07T11:14:55;25.60;99.90
39881;DHT22;25554;44.954;10.068;2023-05-07T13:30:29;27.50;99.20
39881;DHT22;25554;44.954;10.068;2023-05-07T15:42:24;28.20;98.80
39881;DHT22;25554;44.954;10.068;2023-05-07T18:39:10;23.10;99.90
39881;DHT22;25554;44.954;10.068;2023-05-07T19:13:37;22.20;99.90
39881;DHT22;25554;44.954;10.068;2023-05-07T19:23:36;21.60;99.90
39881;DHT22;25554;44.954;10.068;2023-05-07T19:26:32;21.60;99.90
39881;DHT22;25554;44.954;10.068;2023-05-07T19:56:54;21.00;99.90
39881;DHT22;25554;44.954;10.068;2023-05-07T20:11:10;20.50;99.90
39881;DHT22;25554;44.954;10.068;2023-05-07T20:20:32;20.50;99.90
39881;DHT22;25554;44.954;10.068;2023-05-07T20:24:26;20.40;99.90
39881;DHT22;25554;44.954;10.068;2023-05-07T20:27:22;20.20;99.90
39881;DHT22;25554;44.954;10.068;2023-05-07T20:35:02;24.20;99.90
39881;DHT22;25554;44.954;10.068;2023-05-07T20:43:18;19.80;99.90
39881;DHT22;25554;44.954;10.068;2023-05-07T20:46:13;19.60;99.90
39881;DHT22;25554;44.954;10.068;2023-05-07T20:49:55;19.10;99.90
39881;DHT22;25554;44.954;10.068;2023-05-07T20:57:15;19.60;99.90
39881;DHT22;25554;44.954;10.068;2023-05-07T21:00:32;17.40;99.90
39881;DHT22;25554;44.954;10.068;2023-05-07T21:03:37;19.30;99.90
39881;DHT22;25554;44.954;10.068;2023-05-07T21:29:09;19.40;99.90
39881;DHT22;25554;44.954;10.068;2023-05-07T21:32:29;19.40;99.90
39881;DHT22;25554;44.954;10.068;2023-05-07T21:47:54;19.10;99.90
39881;DHT22;25554;44.954;10.068;2023-05-07T22:11:43;18.70;99.90
39881;DHT22;25554;44.954;10.068;2023-05-07T22:19:02;18.70;99.90
39881;DHT22;25554;44.954;10.068;2023-05-07T22:42:07;18.30;99.90
39881;DHT22;25554;44.954;10.068;2023-05-07T23:15:57;18.40;99.90
39881;DHT22;25554;44.954;10.068;2023-05-07T23:30:39;18.30;99.90
39881;DHT22;25554;44.954;10.068;2023-05-07T23:35:31;18.10;99.90
39881;DHT22;25554;44.954;10.068;2023-05-07T23:40:24;18.10;99.90
39881;DHT22;25554;44.954;10.068;2023-05-07T23:45:17;18.00;99.90
39881;DHT22;25554;44.954;10.068;2023-05-07T23:52:37;18.00;99.90
